Ellensburg, WA

8:59 AM PDT on September 30, 2014 (GMT -0700)
Bowers | Change Station
CLOSE
Current Station
Airport
Location: Ellensburg,
Elevation: 1762 ft
Nearby Weather Stations
Active Advisory: Wind Advisory, Special Statement

Elev 1762 ft 47.03 °N, 120.53 °W | Updated 6 minutes ago

Mostly Cloudy
Mostly Cloudy
57 °F
Feels Like 57 °F
N
17
Wind Variable Wind from WNW

Today
High -- | Low -- °F
--% Chance of Precip.
Yesterday
High -- | Low -- °F
Precip. -- in
6:59 AM 6:43 PM
Waxing Crescent, 38% visible
Pressure 29.98 in
Visibility 10.0 miles
Clouds Mostly Cloudy 5000 ft
Mostly Cloudy 6000 ft
Dew Point 42 °F
Humidity 57%
Rainfall 0.00 in
Snow Depth 1 in , 0 in , 0 in
UV 1 out of 12
Pollen 2.40 out of 12
Air Quality Not available.
Flu Activity Not available.
METAR KELN 301553Z AUTO 29015KT 10SM BKN050 BKN060 14/06 A2998 RMK AO2 PK WND 29026/1459 SLP150 T01390056

More Conditions Fewer Conditions

Pressure 29.98 in
Visibility 10.0 miles
Clouds Mostly Cloudy 5000 ft
Mostly Cloudy 6000 ft
Dew Point 42 °F
Humidity 57%
Rainfall 0.00 in
Snow Depth 1 in , 0 in , 0 in
UV 1 out of 12
Pollen 2.40 out of 12
Air Quality Not available.
Flu Activity Not available.
METAR KELN 301553Z AUTO 29015KT 10SM BKN050 BKN060 14/06 A2998 RMK AO2 PK WND 29026/1459 SLP150 T01390056

More Conditions Fewer Conditions

10-Day Weather Forecast

Almanac

Astronomy

Sep. 30, 2014 Rise Set
Actual Time 6:59 AM PDT 6:43 PM PDT
Civil Twilight 6:29 AM PDT 7:13 PM PDT
Nautical Twilight 5:53 AM PDT 7:49 PM PDT
Astronomical Twilight 5:17 AM PDT 8:25 PM PDT
Moon 1:30 PM PDT 11:01 PM PDT
Length of Visible Light 12h 44m
Length of Day
11h 43m
Tomorrow will be 3m 19s shorter.
Waxing Crescent, 38% of the Moon is Illuminated
Today
Waxing Crescent
Oct 1
First Quarter
Oct 8
Full
Oct 15
Last Quarter
Oct 23
New

Today's Extremes

State Highs State Lows

Community

WunderPhotos

Upload Photos

1,757,671 photos uploaded!

Nearby

Snow Depth

Station Depth Elevation
Quartz Peak 1 in 4700 ft
Grouse Camp 0 in 5380 ft
Potato Hill 0 in 4500 ft
Lost Horse 0 in 5000 ft
Wells Creek 0 in 4200 ft

Earthquake Activity

City Distance Mag. Time & Date
No recent earthquake activity has been reported nearby.
Minimum magnitude displayed is 2.5.

Coastal Water Temperatures

Place Temperature
No Stations Reporting

Nearby Weather Stations